X  Schließen METAR Luftfahrt Wetterdaten        LYNI Nis Airport
Temperatur
23°C Temperatur
19°C Taupunkt
78% Feuchtigkeit



Wind
2 M/S
5 MPS
7 KM/S
4 KTS



120°
OSO
Aktuelle Wetterlage

Mostly Clear Größtenteils klar
Luftdruck 1012 (hPa) - 29.89 (inHg)
Sichtweite 6 (Meile) - 10 (Km)
Flughafen
Flughafen Code LYNI

Position : Nis Airport
Entfernung: 14 (Km)

Metar:
METAR LYNI 232300Z 12004KT CAVOK 23/19 Q1013 NOSIG

Zeit: 24-07-2024 01:00 CEST